Terminal Aerodrome Forecast
Issued by NWS

Home | Current Version | Previous Version | Text Only | Print | Product List | Glossary On
Versions: 1 2 3 4 5 6 7 8 9 10 11 12 13
000
FTUS41 KPHI 251133
TAFPNE
TAF
KPNE 251133Z 2512/2612 19004KT P6SM BKN200
     FM251500 23012G24KT P6SM FEW050 SCT200
     FM260000 20008KT P6SM SCT200
     FM260600 22004KT P6SM BKN200=

USA.gov is the U.S. government's official web portal to all federal, state and local government web resources and services.